Bury St Edmunds, United Kingdom
Current Conditions -  °F | °C
As of 6:34 PM on Thursday 27 Nov 2014 (Local Time) from EGUL Reporting Station
Overcast Overcast  
Wind Chill: 50°   Ceiling: 5500
Heat Index: 50°   Visibility: 6mi
Dew Point: 50°   Wind: 7mph
Humidity: 100%   Direction: 110°ESE
Pressure: 29.6"   Gusts: NA
Location:  52.25°N, 0.71°E
Report Text: EGUL 271834Z AUTO 11006KT 9999 SCT023 BKN055 OVC070 10/10 A2960 RMK AO2
Loading
Personal Weather Stations






























Interactive Weather Map New forecast layout! Learn more

10-Day Weather Forecast

Advertisements
Track Severe Weather on mobile